Time;durP1;ratioP1;P1;durP2;ratioP2;P2;SDS_P1;SDS_P2;PMS_P1;PMS_P2;Temp;Humidity;BMP_temperature;BMP_pressure;BME280_temperature;BME280_humidity;BME280_pressure;Samples;Min_cycle;Max_cycle;Signal;HPM_P1;HPM_P2
2022/08/13 00:02:20;;;;;;;1.40;0.90;;;23.80;61.20;;;;;;5019278;28;20503;-71
2022/08/13 00:04:59;;;;;;;1.43;0.90;;;23.80;61.30;;;;;;5036481;28;20478;-71
2022/08/13 00:07:28;;;;;;;1.43;0.90;;;23.80;60.80;;;;;;5028392;28;21066;-72
2022/08/13 00:09:57;;;;;;;1.50;1.03;;;23.80;61.20;;;;;;5033687;28;20484;-72
2022/08/13 00:15:16;;;;;;;1.43;0.83;;;23.80;61.70;;;;;;5044201;28;20620;-72
2022/08/13 00:17:44;;;;;;;1.43;0.80;;;23.80;61.60;;;;;;5032871;28;21013;-71
2022/08/13 00:20:13;;;;;;;1.40;0.90;;;23.70;62.00;;;;;;5039800;28;20463;-71
2022/08/13 00:22:40;;;;;;;1.40;0.80;;;23.80;61.80;;;;;;5019405;28;20551;-72
2022/08/13 00:25:09;;;;;;;1.40;0.90;;;23.70;61.60;;;;;;5030622;28;20482;-72
2022/08/13 00:27:37;;;;;;;1.40;0.90;;;23.70;61.90;;;;;;5025404;28;20499;-71
2022/08/13 00:30:07;;;;;;;1.47;0.80;;;23.70;62.00;;;;;;5036869;28;20522;-71
2022/08/13 00:32:35;;;;;;;1.40;0.90;;;23.70;61.90;;;;;;5019578;28;20487;-72
2022/08/13 00:35:03;;;;;;;1.47;0.90;;;23.70;62.10;;;;;;5035462;28;20981;-72
2022/08/13 00:37:32;;;;;;;1.43;0.90;;;23.60;62.30;;;;;;5038286;28;20513;-72
2022/08/13 00:39:58;;;;;;;1.43;0.90;;;23.60;62.00;;;;;;5031791;28;20574;-72
2022/08/13 00:42:27;;;;;;;1.43;0.90;;;23.60;62.60;;;;;;5020580;28;20923;-72
2022/08/13 00:44:54;;;;;;;1.47;0.90;;;23.50;62.70;;;;;;5031047;28;20572;-72
2022/08/13 00:50:07;;;;;;;1.43;0.90;;;23.50;62.90;;;;;;5043747;28;20905;-72
2022/08/13 00:52:41;;;;;;;1.43;0.87;;;23.40;63.00;;;;;;5013246;28;20487;-72
2022/08/13 00:55:16;;;;;;;1.47;0.90;;;23.30;63.20;;;;;;5027044;28;20955;-73
2022/08/13 00:57:45;;;;;;;1.40;0.90;;;23.30;62.90;;;;;;5007619;28;20814;-72
2022/08/13 01:00:17;;;;;;;1.47;0.90;;;23.20;63.10;;;;;;5036307;28;20480;-72
2022/08/13 01:02:53;;;;;;;1.47;0.90;;;23.20;63.50;;;;;;5026383;28;20487;-72
2022/08/13 01:05:27;;;;;;;1.40;0.90;;;23.20;63.20;;;;;;5039190;28;20888;-73
2022/08/13 01:07:59;;;;;;;1.40;0.90;;;23.20;63.40;;;;;;5025454;28;20520;-72
2022/08/13 01:10:33;;;;;;;1.40;0.90;;;23.20;63.80;;;;;;5036518;28;20462;-73
2022/08/13 01:13:04;;;;;;;1.47;0.90;;;23.20;64.00;;;;;;5042247;28;20465;-72
2022/08/13 01:15:34;;;;;;;1.43;0.90;;;23.10;63.80;;;;;;5043412;28;20467;-73
2022/08/13 01:18:12;;;;;;;1.43;0.90;;;23.10;64.50;;;;;;5023460;28;20483;-73
2022/08/13 01:20:47;;;;;;;1.43;0.90;;;23.10;64.60;;;;;;5031365;28;20458;-72
2022/08/13 01:23:22;;;;;;;1.47;0.90;;;23.00;64.50;;;;;;5007837;28;20501;-71
2022/08/13 01:25:50;;;;;;;1.43;0.90;;;23.00;64.60;;;;;;5028953;28;20465;-71
2022/08/13 01:28:18;;;;;;;1.50;0.90;;;23.00;64.80;;;;;;5030772;28;21014;-72
2022/08/13 01:30:47;;;;;;;1.40;0.90;;;23.10;64.60;;;;;;5031255;28;20491;-72
2022/08/13 01:33:16;;;;;;;1.40;0.90;;;23.10;64.60;;;;;;5001023;28;20471;-72
2022/08/13 01:35:43;;;;;;;1.40;0.90;;;23.10;64.50;;;;;;5027412;28;20915;-72
2022/08/13 01:38:10;;;;;;;1.43;0.90;;;23.10;64.40;;;;;;5031361;28;20725;-72
2022/08/13 01:40:39;;;;;;;1.47;0.80;;;23.10;64.60;;;;;;5048400;28;20505;-72
2022/08/13 01:43:07;;;;;;;1.43;0.90;;;23.10;64.10;;;;;;5019741;28;20533;-72
2022/08/13 01:45:35;;;;;;;1.40;0.90;;;23.00;64.90;;;;;;5043173;28;20545;-72
2022/08/13 01:50:50;;;;;;;1.47;0.90;;;23.00;64.90;;;;;;5025115;28;20507;-72
2022/08/13 01:53:18;;;;;;;1.43;0.90;;;23.00;64.90;;;;;;5033560;28;20459;-72
2022/08/13 01:55:52;;;;;;;1.40;0.90;;;22.90;64.80;;;;;;5028587;28;20467;-72
2022/08/13 01:58:22;;;;;;;1.40;0.90;;;22.90;65.00;;;;;;5001583;28;20510;-72
2022/08/13 02:00:50;;;;;;;1.47;0.90;;;22.90;65.00;;;;;;5020256;28;20916;-72
2022/08/13 02:03:19;;;;;;;1.40;0.90;;;22.80;65.40;;;;;;5025699;28;20494;-72
2022/08/13 02:05:47;;;;;;;1.43;0.90;;;22.80;65.70;;;;;;5032734;28;21033;-72
2022/08/13 02:08:16;;;;;;;1.47;0.90;;;22.80;65.70;;;;;;5025293;28;21033;-73
2022/08/13 02:10:46;;;;;;;1.50;0.90;;;22.70;66.00;;;;;;5028085;28;20466;-71
2022/08/13 02:13:18;;;;;;;1.47;0.90;;;22.70;66.20;;;;;;5018297;28;20483;-71
2022/08/13 02:15:47;;;;;;;1.50;0.90;;;22.70;66.00;;;;;;5029801;28;20467;-72
2022/08/13 02:18:17;;;;;;;1.50;1.00;;;22.60;66.20;;;;;;5003824;28;20549;-72
2022/08/13 02:20:46;;;;;;;1.43;0.87;;;22.60;66.20;;;;;;5031035;28;20471;-74
2022/08/13 02:23:19;;;;;;;1.50;0.90;;;22.60;66.60;;;;;;5003656;28;20963;-72
2022/08/13 02:25:53;;;;;;;1.47;0.90;;;22.50;66.80;;;;;;5037159;28;20474;-72
2022/08/13 02:28:24;;;;;;;1.43;0.90;;;22.50;66.60;;;;;;5036645;28;20490;-72
2022/08/13 02:30:57;;;;;;;1.43;0.90;;;22.50;66.70;;;;;;5028628;28;20519;-72
2022/08/13 02:33:33;;;;;;;1.47;1.00;;;22.40;66.70;;;;;;5040862;28;20463;-72
2022/08/13 02:36:10;;;;;;;1.47;0.90;;;22.40;66.90;;;;;;5026366;28;20526;-71
2022/08/13 02:38:38;;;;;;;1.43;0.90;;;22.40;67.40;;;;;;5030959;28;20589;-72
2022/08/13 02:44:12;;;;;;;1.50;0.90;;;22.20;68.50;;;;;;5041166;28;20457;-73
2022/08/13 02:46:49;;;;;;;1.50;0.90;;;22.20;68.50;;;;;;5033750;28;20486;-73
2022/08/13 02:49:23;;;;;;;1.47;0.90;;;22.10;69.10;;;;;;5043807;28;20486;-72
2022/08/13 02:51:54;;;;;;;1.50;0.90;;;22.00;68.70;;;;;;5044270;28;20547;-72
2022/08/13 02:54:23;;;;;;;1.50;1.00;;;21.90;69.00;;;;;;5042985;28;20464;-73
2022/08/13 02:56:56;;;;;;;1.47;0.90;;;21.90;69.30;;;;;;5035243;28;20574;-72
2022/08/13 02:59:24;;;;;;;1.47;0.90;;;21.90;69.20;;;;;;5044915;28;20480;-72
2022/08/13 03:01:55;;;;;;;1.47;0.90;;;21.80;69.50;;;;;;5031133;28;20486;-72
2022/08/13 03:04:34;;;;;;;1.50;0.90;;;21.80;69.30;;;;;;5036627;28;20471;-73
2022/08/13 03:07:04;;;;;;;1.40;0.90;;;21.80;69.30;;;;;;5026488;28;21042;-73
2022/08/13 03:09:32;;;;;;;1.47;0.90;;;21.70;70.80;;;;;;5047609;28;20489;-73
2022/08/13 03:12:06;;;;;;;1.43;0.90;;;21.70;70.10;;;;;;5035722;28;20490;-72
2022/08/13 03:14:39;;;;;;;1.50;0.90;;;21.60;70.60;;;;;;5044355;28;20461;-72
2022/08/13 03:17:06;;;;;;;1.43;0.90;;;21.50;70.70;;;;;;5026015;28;21035;-72
2022/08/13 03:19:41;;;;;;;1.47;0.90;;;21.50;70.90;;;;;;5037117;28;20498;-72
2022/08/13 03:22:09;;;;;;;1.40;0.90;;;21.50;71.50;;;;;;5019787;28;20514;-73
2022/08/13 03:24:39;;;;;;;1.47;0.90;;;21.40;71.30;;;;;;5050916;28;20463;-72
2022/08/13 03:27:08;;;;;;;1.40;0.90;;;21.40;71.30;;;;;;5032527;28;20468;-72
2022/08/13 03:29:38;;;;;;;1.50;0.90;;;21.40;71.50;;;;;;5039652;28;20543;-72
2022/08/13 03:32:17;;;;;;;1.47;0.90;;;21.30;71.30;;;;;;5025753;28;20495;-72
2022/08/13 03:34:51;;;;;;;1.47;0.90;;;21.30;71.30;;;;;;5051891;28;20568;-72
2022/08/13 03:37:25;;;;;;;1.47;0.90;;;21.30;71.50;;;;;;5044524;28;20470;-72
2022/08/13 03:39:53;;;;;;;1.50;0.90;;;21.30;71.00;;;;;;5046316;28;20490;-72
2022/08/13 03:42:22;;;;;;;1.47;0.90;;;21.30;71.80;;;;;;5025791;28;20487;-71
2022/08/13 03:44:49;;;;;;;1.40;0.90;;;21.20;71.40;;;;;;5040911;28;20466;-72
2022/08/13 03:47:18;;;;;;;1.43;0.90;;;21.20;71.30;;;;;;5054861;28;20676;-72
2022/08/13 03:49:47;;;;;;;1.43;0.90;;;21.20;71.70;;;;;;5054915;28;20883;-72
2022/08/13 03:55:02;;;;;;;1.43;0.90;;;21.20;71.30;;;;;;5043902;28;20463;-73
2022/08/13 03:58:05;;;;;;;1.43;0.90;;;21.20;71.90;;;;;;5020780;28;20487;-72
2022/08/13 04:00:40;;;;;;;1.40;0.90;;;21.20;71.50;;;;;;5045308;28;20467;-72
2022/08/13 04:03:28;;;;;;;1.40;0.90;;;21.20;71.30;;;;;;5044005;28;20466;-72
2022/08/13 04:06:12;;;;;;;1.50;0.90;;;21.20;71.80;;;;;;5029098;28;20475;-72
2022/08/13 04:09:03;;;;;;;1.43;0.90;;;21.10;72.60;;;;;;5035681;28;20487;-72
2022/08/13 04:11:50;;;;;;;1.43;0.90;;;21.10;71.70;;;;;;5029072;28;20542;-72
2022/08/13 04:14:48;;;;;;;1.40;0.90;;;21.10;71.60;;;;;;5045982;28;20500;-72
2022/08/13 04:17:22;;;;;;;1.43;0.90;;;21.10;71.80;;;;;;5019478;28;20571;-72
2022/08/13 04:20:10;;;;;;;1.47;0.90;;;21.00;72.50;;;;;;5043416;28;20502;-72
2022/08/13 04:22:55;;;;;;;1.43;0.90;;;20.90;73.80;;;;;;5044178;28;20463;-73
2022/08/13 04:25:36;;;;;;;1.47;0.90;;;20.80;73.80;;;;;;5050473;28;20571;-73
2022/08/13 04:31:05;;;;;;;1.43;0.90;;;20.70;74.20;;;;;;5032956;28;20455;-72
2022/08/13 04:33:45;;;;;;;1.47;0.90;;;20.70;74.70;;;;;;5034467;28;20464;-72
2022/08/13 04:36:46;;;;;;;1.50;0.90;;;20.60;75.40;;;;;;5044344;28;20488;-72
2022/08/13 04:39:54;;;;;;;1.43;0.90;;;20.50;75.50;;;;;;5051038;28;20910;-73
2022/08/13 04:42:22;;;;;;;1.47;1.00;;;20.50;76.40;;;;;;4928559;29;20930;-73
2022/08/13 04:44:58;;;;;;;1.40;0.90;;;20.40;76.70;;;;;;4944063;28;20455;-73
2022/08/13 04:50:20;;;;;;;1.43;0.90;;;20.40;76.80;;;;;;5038481;28;20459;-73
2022/08/13 04:52:51;;;;;;;1.40;0.90;;;20.30;77.20;;;;;;5040423;28;20474;-73
2022/08/13 04:55:25;;;;;;;1.47;0.90;;;20.30;77.60;;;;;;5047341;28;20463;-73
2022/08/13 04:57:56;;;;;;;1.40;0.90;;;20.30;77.30;;;;;;5026119;28;20792;-73
2022/08/13 05:00:44;;;;;;;1.43;0.90;;;20.30;78.20;;;;;;5038895;28;20483;-73
2022/08/13 05:03:29;;;;;;;1.47;0.90;;;20.30;78.70;;;;;;5025776;28;21071;-72
2022/08/13 05:06:19;;;;;;;1.47;0.90;;;20.20;80.00;;;;;;5027808;28;21113;-72
2022/08/13 05:09:03;;;;;;;1.40;0.90;;;20.20;78.70;;;;;;5043168;28;20479;-72
2022/08/13 05:11:41;;;;;;;1.50;0.90;;;20.30;79.10;;;;;;5034548;28;20853;-72
2022/08/13 05:14:29;;;;;;;1.50;0.90;;;20.20;78.30;;;;;;5051868;28;20470;-73
2022/08/13 05:17:07;;;;;;;1.40;0.90;;;20.30;78.30;;;;;;5036427;28;20881;-72
2022/08/13 05:19:38;;;;;;;1.40;0.90;;;20.40;78.60;;;;;;5036758;28;20586;-72
2022/08/13 05:22:14;;;;;;;1.40;0.90;;;20.40;79.00;;;;;;5022428;28;20471;-72
2022/08/13 05:24:46;;;;;;;1.40;0.90;;;20.50;79.50;;;;;;5048529;28;20454;-72
2022/08/13 05:27:19;;;;;;;1.40;0.90;;;20.60;79.30;;;;;;5052709;28;20450;-74
2022/08/13 05:29:53;;;;;;;1.43;0.90;;;20.70;79.00;;;;;;5047367;28;20480;-72
2022/08/13 05:32:46;;;;;;;1.43;0.90;;;20.90;78.00;;;;;;5026241;28;20514;-72
2022/08/13 05:35:28;;;;;;;1.47;0.90;;;21.10;78.70;;;;;;5050156;28;20527;-72
2022/08/13 05:38:05;;;;;;;1.43;0.90;;;21.30;77.50;;;;;;5022808;28;20567;-72
2022/08/13 05:40:38;;;;;;;1.43;0.90;;;21.50;77.10;;;;;;5046518;28;20489;-72
2022/08/13 05:43:21;;;;;;;1.40;0.90;;;21.70;76.30;;;;;;5027395;28;21037;-72
2022/08/13 05:46:20;;;;;;;1.43;0.90;;;21.90;75.70;;;;;;5043143;28;20570;-72
2022/08/13 05:51:54;;;;;;;;;;;;;;;;;;;;;
2022/08/13 05:55:03;;;;;;;1.43;0.90;;;22.80;74.40;;;;;;5038175;28;20527;-76
2022/08/13 05:58:00;;;;;;;1.43;0.90;;;23.20;72.50;;;;;;5028012;28;20517;-75
2022/08/13 06:03:52;;;;;;;1.47;0.90;;;23.60;69.50;;;;;;5024210;28;20479;-74
2022/08/13 06:06:29;;;;;;;1.43;0.90;;;23.80;69.30;;;;;;5033600;28;20485;-74
2022/08/13 06:09:15;;;;;;;1.47;0.90;;;24.00;67.70;;;;;;5068103;23;20590;-73
2022/08/13 06:12:06;;;;;;;1.47;0.90;;;24.10;68.50;;;;;;4984725;28;20477;-74
2022/08/13 06:14:57;;;;;;;1.47;0.90;;;24.20;67.20;;;;;;4989067;28;20872;-75
2022/08/13 06:23:57;;;;;;;1.50;0.90;;;24.70;66.40;;;;;;4966398;28;20471;-74
2022/08/13 06:26:34;;;;;;;1.50;0.90;;;24.80;66.00;;;;;;5046717;28;20463;-73
2022/08/13 06:29:16;;;;;;;1.50;0.90;;;25.00;66.10;;;;;;5059212;28;20513;-74
2022/08/13 06:32:11;;;;;;;1.47;0.90;;;25.20;65.40;;;;;;5046654;28;21084;-73
2022/08/13 06:34:41;;;;;;;1.43;0.90;;;25.30;65.60;;;;;;5052493;28;20543;-72
2022/08/13 06:37:22;;;;;;;1.50;0.90;;;25.30;65.30;;;;;;5050313;28;21030;-77
2022/08/13 06:39:55;;;;;;;1.50;1.00;;;25.20;65.40;;;;;;5058391;28;20522;-75
2022/08/13 06:43:05;;;;;;;1.43;0.90;;;25.10;65.60;;;;;;5044321;28;20490;-75
2022/08/13 06:45:34;;;;;;;1.43;0.90;;;25.10;66.20;;;;;;5041422;28;20904;-73
2022/08/13 06:50:56;;;;;;;1.43;0.90;;;25.70;65.90;;;;;;5071171;23;20479;-73
2022/08/13 06:56:32;;;;;;;1.43;0.90;;;26.20;64.40;;;;;;5013361;28;20505;-73
2022/08/13 06:59:23;;;;;;;1.50;0.87;;;26.30;64.80;;;;;;5042443;28;20861;-73
2022/08/13 07:02:00;;;;;;;1.50;0.80;;;26.40;64.10;;;;;;5029598;28;20516;-74
2022/08/13 07:07:31;;;;;;;1.50;0.90;;;26.70;63.40;;;;;;4985363;28;20466;-73
2022/08/13 07:10:49;;;;;;;1.47;0.80;;;26.70;63.20;;;;;;4984818;28;20544;-73
2022/08/13 07:13:16;;;;;;;1.97;1.63;;;26.80;63.70;;;;;;4948184;28;20470;-72
2022/08/13 07:15:50;;;;;;;1.50;0.90;;;26.90;62.90;;;;;;4986514;28;20962;-73
2022/08/13 07:18:17;;;;;;;1.50;1.00;;;27.00;61.90;;;;;;5012079;28;20529;-72
2022/08/13 07:20:46;;;;;;;1.47;0.90;;;27.10;62.30;;;;;;5035060;28;20537;-72
2022/08/13 07:23:13;;;;;;;1.47;0.80;;;27.30;61.80;;;;;;5008451;28;20486;-73
2022/08/13 07:25:44;;;;;;;1.50;0.80;;;27.30;60.90;;;;;;5032643;28;20459;-73
2022/08/13 07:28:13;;;;;;;1.60;1.37;;;27.50;61.30;;;;;;5031433;28;20521;-72
2022/08/13 07:30:46;;;;;;;1.50;0.90;;;27.60;60.60;;;;;;5030195;28;20454;-73
2022/08/13 07:33:39;;;;;;;1.50;0.80;;;27.80;60.50;;;;;;5010075;28;20534;-74
2022/08/13 07:36:40;;;;;;;;;;;;;;;;;;;;;
2022/08/13 07:39:13;;;;;;;1.50;0.80;;;27.70;59.70;;;;;;5036994;28;20491;-74
2022/08/13 07:41:42;;;;;;;1.47;1.00;;;27.80;60.30;;;;;;5037730;28;20546;-73
2022/08/13 07:44:13;;;;;;;1.43;0.80;;;27.90;59.50;;;;;;5037797;28;20462;-74
2022/08/13 07:46:49;;;;;;;1.50;0.87;;;27.90;59.50;;;;;;5033716;28;20486;-74
2022/08/13 07:49:22;;;;;;;1.40;0.80;;;28.00;59.30;;;;;;5042065;28;20493;-73
2022/08/13 07:51:57;;;;;;;1.50;0.80;;;28.10;59.30;;;;;;5029435;28;20508;-75
2022/08/13 07:54:26;;;;;;;1.43;0.80;;;28.20;59.00;;;;;;5036006;28;20492;-74
2022/08/13 07:56:55;;;;;;;1.47;0.80;;;28.40;59.00;;;;;;5029832;28;20484;-73
2022/08/13 07:59:25;;;;;;;1.50;0.90;;;28.50;59.20;;;;;;5041147;28;20493;-74
2022/08/13 08:01:53;;;;;;;1.40;0.80;;;28.70;59.30;;;;;;5029029;28;20485;-73
2022/08/13 08:04:30;;;;;;;1.40;0.80;;;28.90;58.30;;;;;;5041365;28;20562;-73
2022/08/13 08:07:01;;;;;;;1.40;0.80;;;29.00;58.70;;;;;;5027252;28;20470;-74
2022/08/13 08:09:34;;;;;;;1.43;0.80;;;29.00;58.20;;;;;;5035213;28;20482;-73
2022/08/13 08:14:53;;;;;;;1.40;0.90;;;29.10;58.20;;;;;;5019820;28;20481;-74
2022/08/13 08:17:32;;;;;;;1.47;0.90;;;29.30;57.90;;;;;;5032200;28;20871;-73
2022/08/13 08:20:02;;;;;;;1.43;0.80;;;29.50;58.90;;;;;;5035869;28;20986;-73
2022/08/13 08:22:31;;;;;;;1.50;1.00;;;29.90;57.20;;;;;;5032776;28;20489;-74
2022/08/13 08:25:02;;;;;;;1.43;0.80;;;30.10;56.90;;;;;;5040889;28;20462;-73
2022/08/13 08:27:44;;;;;;;1.40;0.80;;;30.30;55.90;;;;;;5033311;28;20521;-74
2022/08/13 08:30:17;;;;;;;1.47;0.80;;;30.50;56.00;;;;;;5038345;28;20459;-74
2022/08/13 08:32:53;;;;;;;1.50;1.00;;;30.70;57.20;;;;;;5035331;28;20565;-75
2022/08/13 08:35:26;;;;;;;1.50;0.90;;;30.80;54.80;;;;;;5036462;28;20524;-75
2022/08/13 08:43:36;;;;;;;1.60;1.00;;;31.20;54.50;;;;;;5029935;28;20557;-74
2022/08/13 08:46:08;;;;;;;1.47;0.90;;;31.20;53.80;;;;;;5030272;28;20463;-74
2022/08/13 08:48:38;;;;;;;1.43;0.80;;;31.10;53.70;;;;;;5040147;28;20761;-74
2022/08/13 08:51:11;;;;;;;1.50;0.90;;;31.10;54.20;;;;;;5040067;28;20490;-74
2022/08/13 08:53:44;;;;;;;1.43;0.80;;;31.30;53.80;;;;;;5037398;28;20963;-75
2022/08/13 08:56:20;;;;;;;1.40;0.80;;;31.40;54.20;;;;;;5036337;28;20467;-73
2022/08/13 08:59:09;;;;;;;1.47;0.90;;;31.50;53.30;;;;;;5064127;22;20494;-74
2022/08/13 09:01:41;;;;;;;1.43;0.80;;;31.60;52.80;;;;;;5007091;28;20485;-75
2022/08/13 09:04:11;;;;;;;1.50;0.90;;;31.50;52.90;;;;;;5034718;28;20467;-74
2022/08/13 09:09:18;;;;;;;1.43;0.80;;;31.50;52.90;;;;;;5009617;22;20499;-75
2022/08/13 09:11:46;;;;;;;1.40;0.80;;;31.80;52.40;;;;;;4985673;28;20497;-77
2022/08/13 09:14:18;;;;;;;1.47;0.80;;;31.90;52.00;;;;;;5002780;28;21108;-78
2022/08/13 09:16:49;;;;;;;1.40;0.80;;;31.90;52.20;;;;;;5000744;28;20488;-79
2022/08/13 09:19:17;;;;;;;1.43;0.80;;;31.90;52.50;;;;;;5005254;28;20235;-80
2022/08/13 09:21:49;;;;;;;1.50;1.00;;;31.90;52.30;;;;;;4990913;28;20483;-78
2022/08/13 09:24:24;;;;;;;1.40;0.80;;;32.00;51.50;;;;;;5002589;28;20456;-79
2022/08/13 09:26:59;;;;;;;1.40;0.80;;;31.90;50.90;;;;;;5000187;28;20236;-78
2022/08/13 09:29:27;;;;;;;1.40;0.80;;;32.00;52.20;;;;;;5009955;28;20486;-78
2022/08/13 09:31:55;;;;;;;1.40;0.80;;;32.30;51.90;;;;;;5012350;28;20517;-79
2022/08/13 09:34:24;;;;;;;1.40;0.80;;;32.70;51.60;;;;;;5001253;28;20209;-78
2022/08/13 09:36:57;;;;;;;1.40;0.80;;;32.80;51.20;;;;;;5005774;28;20228;-78
2022/08/13 09:39:33;;;;;;;1.40;0.80;;;32.90;51.00;;;;;;5003101;28;20233;-79
2022/08/13 09:42:06;;;;;;;1.40;0.80;;;33.20;52.10;;;;;;4998950;28;20252;-80
2022/08/13 09:44:42;;;;;;;1.40;0.80;;;33.60;51.20;;;;;;5005508;28;20205;-79
2022/08/13 09:47:21;;;;;;;1.40;0.90;;;33.70;51.10;;;;;;5000823;28;20240;-77
2022/08/13 09:49:50;;;;;;;1.40;0.80;;;33.80;50.60;;;;;;5003875;28;20276;-77
2022/08/13 09:52:21;;;;;;;1.40;0.80;;;33.90;50.00;;;;;;4983055;28;20248;-78
2022/08/13 09:54:49;;;;;;;1.70;1.10;;;34.10;50.10;;;;;;5011170;28;20208;-80
2022/08/13 09:57:20;;;;;;;1.40;0.80;;;34.30;49.50;;;;;;5003559;28;20209;-78
2022/08/13 09:59:51;;;;;;;1.40;0.80;;;34.40;49.00;;;;;;5000420;28;20224;-79
2022/08/13 10:02:21;;;;;;;1.40;0.80;;;34.50;49.10;;;;;;4991093;28;20288;-78
2022/08/13 10:04:55;;;;;;;1.40;0.80;;;34.70;49.50;;;;;;5004669;28;20303;-77
2022/08/13 10:07:24;;;;;;;1.40;0.80;;;34.70;48.80;;;;;;5000471;28;20235;-78
2022/08/13 10:09:51;;;;;;;1.40;0.80;;;34.80;49.10;;;;;;5009256;28;20196;-76
2022/08/13 10:12:18;;;;;;;1.40;0.80;;;34.70;48.00;;;;;;4999814;28;20309;-76
2022/08/13 10:14:46;;;;;;;1.40;0.80;;;34.40;49.00;;;;;;5002546;28;20248;-78
2022/08/13 10:17:16;;;;;;;1.40;0.80;;;34.30;49.30;;;;;;5008261;28;20227;-77
2022/08/13 10:19:44;;;;;;;1.40;0.80;;;34.40;49.10;;;;;;5003844;28;20570;-77
2022/08/13 10:22:11;;;;;;;1.40;0.80;;;34.40;48.20;;;;;;4995499;28;20693;-77
2022/08/13 10:24:40;;;;;;;1.40;0.80;;;34.50;48.20;;;;;;5009907;28;20219;-77
2022/08/13 10:27:07;;;;;;;1.63;1.42;;;34.30;48.40;;;;;;5007873;28;20675;-78
2022/08/13 10:29:34;;;;;;;1.40;0.80;;;34.50;49.40;;;;;;5002078;28;20240;-79
2022/08/13 10:32:05;;;;;;;1.40;0.80;;;34.40;48.70;;;;;;5004623;28;20262;-77
2022/08/13 10:34:33;;;;;;;1.40;0.80;;;34.40;49.20;;;;;;5006510;28;20212;-78
2022/08/13 10:37:02;;;;;;;1.40;0.80;;;34.40;48.50;;;;;;4998716;28;20266;-77
2022/08/13 10:39:29;;;;;;;1.63;0.95;;;34.40;48.30;;;;;;5000970;28;20225;-77
2022/08/13 10:41:57;;;;;;;1.40;0.80;;;34.50;48.80;;;;;;4990487;28;20232;-78
2022/08/13 10:44:24;;;;;;;1.40;0.80;;;34.80;48.40;;;;;;5006045;28;20292;-77
2022/08/13 10:46:51;;;;;;;1.33;0.80;;;35.10;47.80;;;;;;4999424;28;20223;-78
2022/08/13 10:49:18;;;;;;;1.40;0.80;;;35.40;48.10;;;;;;5002637;28;20230;-78
2022/08/13 10:51:47;;;;;;;1.40;0.80;;;35.40;47.90;;;;;;4992984;28;20316;-77
2022/08/13 10:54:14;;;;;;;1.40;0.80;;;35.40;47.60;;;;;;5013111;28;20212;-77
2022/08/13 10:56:41;;;;;;;1.40;0.80;;;35.50;48.20;;;;;;4997072;28;20472;-78
2022/08/13 10:59:12;;;;;;;1.38;0.80;;;35.80;47.10;;;;;;5002900;28;20233;-78
2022/08/13 11:01:40;;;;;;;1.40;0.80;;;36.00;46.40;;;;;;4993590;28;20508;-78
2022/08/13 11:04:07;;;;;;;1.40;0.80;;;36.10;46.80;;;;;;4996814;28;20228;-78
2022/08/13 11:06:36;;;;;;;1.40;0.80;;;36.10;46.30;;;;;;4985549;28;20251;-78
2022/08/13 11:09:04;;;;;;;1.40;0.80;;;35.80;46.80;;;;;;4994371;28;20257;-78
2022/08/13 11:11:34;;;;;;;1.40;0.90;;;36.00;45.70;;;;;;4981577;28;20319;-77
2022/08/13 11:14:01;;;;;;;1.38;0.80;;;36.10;46.30;;;;;;4992449;28;20220;-77
2022/08/13 11:19:15;;;;;;;1.40;0.80;;;36.40;45.60;;;;;;4992924;28;20236;-77
2022/08/13 11:21:44;;;;;;;1.40;0.80;;;36.20;45.60;;;;;;4976048;28;20232;-79
2022/08/13 11:24:11;;;;;;;1.40;0.80;;;36.20;45.70;;;;;;4995510;28;20279;-77
2022/08/13 11:26:39;;;;;;;1.38;0.80;;;36.30;45.40;;;;;;4988879;28;20262;-77
2022/08/13 11:29:07;;;;;;;1.40;0.80;;;35.90;45.30;;;;;;4997207;28;20267;-78
2022/08/13 11:31:35;;;;;;;1.40;0.80;;;35.70;45.20;;;;;;4984215;28;20448;-78
2022/08/13 11:34:03;;;;;;;1.40;0.90;;;35.60;46.00;;;;;;4997005;28;20202;-78
2022/08/13 11:36:30;;;;;;;1.40;0.80;;;35.80;46.50;;;;;;4993901;28;20252;-78
2022/08/13 11:41:48;;;;;;;1.38;0.80;;;36.20;45.40;;;;;;4997347;28;20283;-79
2022/08/13 11:44:16;;;;;;;1.30;0.80;;;36.30;45.70;;;;;;5002840;28;20209;-78
2022/08/13 11:46:45;;;;;;;1.33;0.80;;;36.50;45.30;;;;;;4983028;28;20256;-78
2022/08/13 11:49:12;;;;;;;1.38;0.80;;;36.40;44.30;;;;;;4985681;28;20225;-78
2022/08/13 11:51:40;;;;;;;1.35;0.80;;;36.10;44.70;;;;;;4991385;28;20255;-78
2022/08/13 11:54:07;;;;;;;1.40;0.80;;;36.00;45.60;;;;;;5006009;28;20212;-78
2022/08/13 11:56:34;;;;;;;1.40;0.80;;;36.20;46.90;;;;;;4993403;28;20232;-79
2022/08/13 12:01:45;;;;;;;1.33;0.80;;;36.60;44.70;;;;;;4987962;28;20802;-80
2022/08/13 12:04:13;;;;;;;1.40;0.80;;;36.20;44.40;;;;;;5006972;28;20653;-78
2022/08/13 12:06:41;;;;;;;1.35;0.80;;;36.00;45.70;;;;;;4991419;28;20229;-78
2022/08/13 12:09:08;;;;;;;1.40;0.90;;;36.20;45.60;;;;;;5001972;28;20896;-78
2022/08/13 12:11:35;;;;;;;1.50;1.10;;;36.30;44.30;;;;;;4992200;28;20251;-79
2022/08/13 12:14:03;;;;;;;1.38;0.80;;;36.00;44.20;;;;;;5005529;28;20240;-79
2022/08/13 12:16:30;;;;;;;1.38;0.80;;;35.80;44.40;;;;;;4994040;28;20264;-78
2022/08/13 12:19:00;;;;;;;1.60;1.25;;;35.80;45.70;;;;;;4999441;28;20232;-80
2022/08/13 12:21:29;;;;;;;1.38;0.80;;;36.00;44.50;;;;;;4980817;28;20788;-79
2022/08/13 12:23:56;;;;;;;1.38;0.80;;;36.10;43.90;;;;;;4998102;28;20260;-80
2022/08/13 12:26:23;;;;;;;1.40;0.90;;;36.20;44.50;;;;;;4986794;28;20229;-78
2022/08/13 12:28:50;;;;;;;1.38;0.80;;;36.20;44.20;;;;;;5002706;28;20697;-78
2022/08/13 12:31:18;;;;;;;1.33;0.80;;;36.50;44.90;;;;;;4987157;28;20237;-78
2022/08/13 12:33:52;;;;;;;1.38;0.80;;;36.50;43.30;;;;;;5006383;28;20288;-81
2022/08/13 12:36:50;;;;;;;1.40;0.80;;;36.30;43.80;;;;;;4991910;28;20279;-78
2022/08/13 12:39:17;;;;;;;1.33;0.80;;;36.00;44.10;;;;;;5001187;28;20260;-77
2022/08/13 12:41:44;;;;;;;1.30;0.80;;;35.80;45.60;;;;;;4990532;28;20323;-78
2022/08/13 12:44:12;;;;;;;1.38;0.80;;;35.80;44.70;;;;;;5000603;28;20248;-79
2022/08/13 12:46:40;;;;;;;1.38;0.80;;;36.00;44.70;;;;;;4987579;28;20233;-78
2022/08/13 12:49:08;;;;;;;1.40;0.80;;;36.20;44.60;;;;;;5002018;28;20265;-78
2022/08/13 12:51:37;;;;;;;1.30;0.80;;;36.70;44.40;;;;;;4992827;28;20217;-77
2022/08/13 12:54:13;;;;;;;1.38;0.80;;;37.10;42.90;;;;;;5001643;28;20268;-77
2022/08/13 12:56:41;;;;;;;1.40;0.80;;;37.20;42.50;;;;;;4985100;28;20274;-78
2022/08/13 12:59:08;;;;;;;1.40;0.95;;;36.90;43.10;;;;;;5000595;28;20234;-77
2022/08/13 13:01:35;;;;;;;1.38;0.80;;;36.70;44.10;;;;;;4992608;28;20224;-78
2022/08/13 13:04:03;;;;;;;1.38;0.80;;;36.80;44.60;;;;;;5002180;28;20201;-78
2022/08/13 13:06:30;;;;;;;1.38;0.80;;;37.00;44.00;;;;;;4977943;28;20296;-78
2022/08/13 13:08:58;;;;;;;1.40;0.80;;;37.40;44.80;;;;;;4983950;28;20238;-79
2022/08/13 13:11:25;;;;;;;1.40;0.80;;;37.40;42.90;;;;;;4988599;28;20227;-78
2022/08/13 13:13:54;;;;;;;1.35;0.80;;;37.50;42.60;;;;;;5006824;28;20202;-76
2022/08/13 13:16:22;;;;;;;1.40;0.80;;;37.10;42.20;;;;;;4993422;28;20220;-75
2022/08/13 13:18:49;;;;;;;1.35;0.80;;;36.70;42.60;;;;;;5001175;28;20263;-77
2022/08/13 13:21:16;;;;;;;1.40;0.80;;;36.30;43.20;;;;;;4993548;28;20248;-78
2022/08/13 13:23:43;;;;;;;1.38;0.80;;;36.20;43.70;;;;;;5005628;28;20201;-78
2022/08/13 13:26:12;;;;;;;1.40;0.80;;;36.20;43.50;;;;;;4988963;28;20271;-77
2022/08/13 13:28:44;;;;;;;1.40;0.80;;;36.20;44.00;;;;;;5008531;28;20225;-78
2022/08/13 13:31:11;;;;;;;1.35;0.80;;;36.50;44.00;;;;;;4993698;28;20717;-77
2022/08/13 13:33:38;;;;;;;1.38;0.80;;;36.80;43.50;;;;;;5007456;28;20216;-78
2022/08/13 13:36:06;;;;;;;1.33;0.80;;;37.00;44.20;;;;;;4984927;28;20307;-78
2022/08/13 13:38:33;;;;;;;1.38;0.80;;;37.00;44.10;;;;;;5007644;28;20726;-78
2022/08/13 13:41:00;;;;;;;1.38;0.80;;;37.20;43.30;;;;;;4989310;28;20450;-78
2022/08/13 13:43:29;;;;;;;1.40;0.80;;;37.40;43.80;;;;;;5002171;28;20971;-78
2022/08/13 13:46:00;;;;;;;1.40;0.80;;;37.60;43.70;;;;;;4988897;28;20401;-78
2022/08/13 13:51:22;;;;;;;1.40;0.80;;;37.80;42.30;;;;;;4975945;28;20733;-78
2022/08/13 13:53:50;;;;;;;1.40;0.80;;;37.80;43.10;;;;;;4998071;28;20201;-77
2022/08/13 13:56:18;;;;;;;1.40;0.80;;;37.60;42.50;;;;;;4986978;28;20236;-78
2022/08/13 13:58:47;;;;;;;1.33;0.80;;;37.60;43.10;;;;;;5000651;28;20280;-77
2022/08/13 14:01:15;;;;;;;1.40;0.80;;;37.50;42.60;;;;;;4991641;28;20702;-78
2022/08/13 14:03:42;;;;;;;1.40;0.80;;;37.10;43.20;;;;;;4999441;28;20206;-76
2022/08/13 14:06:20;;;;;;;1.38;0.80;;;36.80;43.20;;;;;;4991651;28;20221;-80
2022/08/13 14:08:49;;;;;;;1.40;0.80;;;36.90;44.10;;;;;;5005734;28;20249;-78
2022/08/13 14:11:19;;;;;;;1.40;0.80;;;37.00;43.70;;;;;;5000497;28;20771;-77
2022/08/13 14:14:04;;;;;;;1.40;0.80;;;37.10;44.30;;;;;;5024129;28;20251;-77
2022/08/13 14:16:31;;;;;;;1.35;0.80;;;37.10;43.00;;;;;;5001178;28;20228;-77
2022/08/13 14:18:58;;;;;;;1.35;0.80;;;37.10;42.90;;;;;;5013655;28;20228;-76
2022/08/13 14:21:27;;;;;;;1.30;0.80;;;37.10;44.10;;;;;;5015305;28;20221;-77